sensor_id;sensor_type;location;lat;lon;timestamp;pressure;altitude;pressure_sealevel;temperature;humidity
41515;BME280;27247;48.020;16.720;2023-03-03T00:00:17;100091.72;;;-0.34;79.41
41515;BME280;27247;48.020;16.720;2023-03-03T00:04:27;100093.00;;;-0.27;79.76
41515;BME280;27247;48.020;16.720;2023-03-03T00:08:38;100098.25;;;-0.27;79.39
41515;BME280;27247;48.020;16.720;2023-03-03T00:12:49;100100.38;;;-0.19;79.38
41515;BME280;27247;48.020;16.720;2023-03-03T00:17:00;100096.63;;;-0.15;79.40
41515;BME280;27247;48.020;16.720;2023-03-03T00:21:52;100095.66;;;-0.14;78.73
41515;BME280;27247;48.020;16.720;2023-03-03T00:26:17;100096.06;;;-0.20;78.12
41515;BME280;27247;48.020;16.720;2023-03-03T00:30:29;100102.28;;;-0.21;77.37
41515;BME280;27247;48.020;16.720;2023-03-03T00:34:41;100091.44;;;-0.29;76.37
41515;BME280;27247;48.020;16.720;2023-03-03T00:38:53;100085.41;;;-0.44;75.60
41515;BME280;27247;48.020;16.720;2023-03-03T00:43:21;100099.31;;;-0.56;75.81
41515;BME280;27247;48.020;16.720;2023-03-03T00:47:38;100091.78;;;-0.75;77.48
41515;BME280;27247;48.020;16.720;2023-03-03T00:51:53;100092.13;;;-0.67;75.70
41515;BME280;27247;48.020;16.720;2023-03-03T00:56:03;100087.97;;;-0.84;76.92
41515;BME280;27247;48.020;16.720;2023-03-03T01:00:14;100085.59;;;-0.74;77.24
41515;BME280;27247;48.020;16.720;2023-03-03T01:04:24;100075.59;;;-0.82;78.37
41515;BME280;27247;48.020;16.720;2023-03-03T01:08:35;100064.16;;;-0.81;78.24
41515;BME280;27247;48.020;16.720;2023-03-03T01:12:46;100068.47;;;-0.80;78.03
41515;BME280;27247;48.020;16.720;2023-03-03T01:16:57;100067.53;;;-0.79;78.05
41515;BME280;27247;48.020;16.720;2023-03-03T01:21:09;100064.41;;;-0.71;77.31
41515;BME280;27247;48.020;16.720;2023-03-03T01:25:19;100057.31;;;-0.83;77.17
41515;BME280;27247;48.020;16.720;2023-03-03T01:29:30;100043.31;;;-0.70;77.46
41515;BME280;27247;48.020;16.720;2023-03-03T01:33:40;100053.63;;;-0.67;78.21
41515;BME280;27247;48.020;16.720;2023-03-03T01:37:50;100047.81;;;-0.99;76.21
41515;BME280;27247;48.020;16.720;2023-03-03T01:42:02;100048.47;;;-1.09;76.20
41515;BME280;27247;48.020;16.720;2023-03-03T01:54:56;100053.56;;;-1.49;78.81
41515;BME280;27247;48.020;16.720;2023-03-03T01:59:16;100047.75;;;-1.40;79.58
41515;BME280;27247;48.020;16.720;2023-03-03T02:03:27;100041.66;;;-1.26;79.93
41515;BME280;27247;48.020;16.720;2023-03-03T02:07:39;100054.09;;;-1.15;80.04
41515;BME280;27247;48.020;16.720;2023-03-03T02:11:51;100055.78;;;-1.14;81.33
41515;BME280;27247;48.020;16.720;2023-03-03T02:16:04;100042.31;;;-1.22;82.04
41515;BME280;27247;48.020;16.720;2023-03-03T02:24:42;100055.38;;;-1.08;80.79
41515;BME280;27247;48.020;16.720;2023-03-03T02:28:54;100051.88;;;-1.36;81.92
41515;BME280;27247;48.020;16.720;2023-03-03T02:33:05;100049.25;;;-1.36;81.96
41515;BME280;27247;48.020;16.720;2023-03-03T02:37:16;100054.22;;;-1.45;81.34
41515;BME280;27247;48.020;16.720;2023-03-03T02:45:43;100042.06;;;-1.61;83.07
41515;BME280;27247;48.020;16.720;2023-03-03T02:49:54;100038.78;;;-1.50;84.55
41515;BME280;27247;48.020;16.720;2023-03-03T02:54:05;100029.22;;;-1.37;84.52
41515;BME280;27247;48.020;16.720;2023-03-03T02:58:16;100028.34;;;-1.23;82.06
41515;BME280;27247;48.020;16.720;2023-03-03T03:02:26;100028.84;;;-1.31;83.56
41515;BME280;27247;48.020;16.720;2023-03-03T03:06:37;100027.06;;;-1.44;84.32
41515;BME280;27247;48.020;16.720;2023-03-03T03:10:47;100029.56;;;-1.29;84.80
41515;BME280;27247;48.020;16.720;2023-03-03T03:14:58;100031.63;;;-1.19;83.63
41515;BME280;27247;48.020;16.720;2023-03-03T03:19:08;100031.06;;;-1.24;83.43
41515;BME280;27247;48.020;16.720;2023-03-03T03:23:19;100033.59;;;-1.23;83.65
41515;BME280;27247;48.020;16.720;2023-03-03T03:27:31;100027.78;;;-1.14;82.15
41515;BME280;27247;48.020;16.720;2023-03-03T03:31:42;100028.75;;;-1.57;79.34
41515;BME280;27247;48.020;16.720;2023-03-03T03:35:53;100011.00;;;-1.67;78.99
41515;BME280;27247;48.020;16.720;2023-03-03T03:40:05;100020.00;;;-2.15;80.34
41515;BME280;27247;48.020;16.720;2023-03-03T03:44:15;100022.22;;;-2.23;80.45
41515;BME280;27247;48.020;16.720;2023-03-03T03:48:26;100011.56;;;-2.20;80.90
41515;BME280;27247;48.020;16.720;2023-03-03T03:52:36;100017.88;;;-2.38;81.00
41515;BME280;27247;48.020;16.720;2023-03-03T03:56:46;100016.59;;;-2.31;83.14
41515;BME280;27247;48.020;16.720;2023-03-03T04:01:05;100010.94;;;-2.09;82.98
41515;BME280;27247;48.020;16.720;2023-03-03T04:05:15;100006.53;;;-2.09;83.73
41515;BME280;27247;48.020;16.720;2023-03-03T04:09:26;100012.38;;;-2.04;85.57
41515;BME280;27247;48.020;16.720;2023-03-03T04:13:37;100012.28;;;-2.02;86.68
41515;BME280;27247;48.020;16.720;2023-03-03T04:17:48;100019.47;;;-2.06;86.77
41515;BME280;27247;48.020;16.720;2023-03-03T04:21:58;100012.38;;;-2.04;87.30
41515;BME280;27247;48.020;16.720;2023-03-03T04:26:08;100013.69;;;-1.97;87.04
41515;BME280;27247;48.020;16.720;2023-03-03T04:30:19;100018.56;;;-1.90;86.43
41515;BME280;27247;48.020;16.720;2023-03-03T04:34:30;100023.53;;;-1.86;86.04
41515;BME280;27247;48.020;16.720;2023-03-03T04:38:40;100037.47;;;-1.71;85.11
41515;BME280;27247;48.020;16.720;2023-03-03T04:42:51;100029.59;;;-1.71;84.26
41515;BME280;27247;48.020;16.720;2023-03-03T04:47:01;100026.34;;;-1.75;82.41
41515;BME280;27247;48.020;16.720;2023-03-03T04:51:11;100031.88;;;-2.09;80.77
41515;BME280;27247;48.020;16.720;2023-03-03T04:55:22;100038.94;;;-2.26;81.00
41515;BME280;27247;48.020;16.720;2023-03-03T04:59:32;100037.34;;;-2.28;81.13
41515;BME280;27247;48.020;16.720;2023-03-03T05:03:44;100047.78;;;-2.42;83.74
41515;BME280;27247;48.020;16.720;2023-03-03T05:07:54;100041.03;;;-2.46;87.16
41515;BME280;27247;48.020;16.720;2023-03-03T05:12:05;100045.19;;;-2.58;90.48
41515;BME280;27247;48.020;16.720;2023-03-03T05:16:15;100046.03;;;-2.58;90.09
41515;BME280;27247;48.020;16.720;2023-03-03T05:20:26;100033.22;;;-2.62;90.63
41515;BME280;27247;48.020;16.720;2023-03-03T05:24:37;100045.56;;;-2.34;90.10
41515;BME280;27247;48.020;16.720;2023-03-03T05:28:48;100036.41;;;-2.27;90.11
41515;BME280;27247;48.020;16.720;2023-03-03T05:32:58;100038.31;;;-2.15;90.92
41515;BME280;27247;48.020;16.720;2023-03-03T05:37:08;100053.53;;;-1.91;89.78
41515;BME280;27247;48.020;16.720;2023-03-03T05:41:19;100054.56;;;-1.80;89.75
41515;BME280;27247;48.020;16.720;2023-03-03T05:45:29;100057.09;;;-1.78;89.88
41515;BME280;27247;48.020;16.720;2023-03-03T05:49:40;100064.50;;;-2.15;87.03
41515;BME280;27247;48.020;16.720;2023-03-03T05:53:50;100062.91;;;-2.17;85.35
41515;BME280;27247;48.020;16.720;2023-03-03T05:58:00;100075.69;;;-2.27;85.40
41515;BME280;27247;48.020;16.720;2023-03-03T06:02:11;100075.91;;;-2.16;85.83
41515;BME280;27247;48.020;16.720;2023-03-03T06:06:21;100085.41;;;-1.99;86.66
41515;BME280;27247;48.020;16.720;2023-03-03T06:10:32;100091.50;;;-1.84;88.39
41515;BME280;27247;48.020;16.720;2023-03-03T06:14:42;100094.53;;;-1.76;89.57
41515;BME280;27247;48.020;16.720;2023-03-03T06:18:54;100085.72;;;-1.75;90.04
41515;BME280;27247;48.020;16.720;2023-03-03T06:23:04;100093.34;;;-2.01;89.98
41515;BME280;27247;48.020;16.720;2023-03-03T06:27:14;100097.47;;;-1.97;90.76
41515;BME280;27247;48.020;16.720;2023-03-03T06:31:25;100105.00;;;-1.76;91.60
41515;BME280;27247;48.020;16.720;2023-03-03T06:35:37;100107.44;;;-1.59;92.08
41515;BME280;27247;48.020;16.720;2023-03-03T06:39:47;100107.47;;;-1.31;92.14
41515;BME280;27247;48.020;16.720;2023-03-03T06:43:57;100115.59;;;-1.07;92.50
41515;BME280;27247;48.020;16.720;2023-03-03T06:48:09;100114.09;;;-0.82;92.14
41515;BME280;27247;48.020;16.720;2023-03-03T06:52:22;100118.19;;;-0.64;92.76
41515;BME280;27247;48.020;16.720;2023-03-03T06:56:35;100120.16;;;-0.41;92.49
41515;BME280;27247;48.020;16.720;2023-03-03T07:00:51;100119.41;;;-0.16;92.28
41515;BME280;27247;48.020;16.720;2023-03-03T07:05:06;100119.28;;;0.13;92.31
41515;BME280;27247;48.020;16.720;2023-03-03T07:09:23;100124.28;;;0.43;91.20
41515;BME280;27247;48.020;16.720;2023-03-03T07:13:36;100124.91;;;0.72;90.46
41515;BME280;27247;48.020;16.720;2023-03-03T07:17:49;100119.63;;;0.97;90.15
41515;BME280;27247;48.020;16.720;2023-03-03T07:22:27;100127.25;;;1.25;90.07
41515;BME280;27247;48.020;16.720;2023-03-03T07:26:40;100129.72;;;1.52;89.44
41515;BME280;27247;48.020;16.720;2023-03-03T07:30:51;100125.28;;;1.77;88.50
41515;BME280;27247;48.020;16.720;2023-03-03T07:35:21;100136.53;;;2.03;86.36
41515;BME280;27247;48.020;16.720;2023-03-03T07:39:38;100143.38;;;2.29;85.56
41515;BME280;27247;48.020;16.720;2023-03-03T07:43:59;100149.66;;;2.50;84.40
41515;BME280;27247;48.020;16.720;2023-03-03T07:48:28;100151.59;;;2.71;83.78
41515;BME280;27247;48.020;16.720;2023-03-03T07:52:43;100151.63;;;2.93;83.18
41515;BME280;27247;48.020;16.720;2023-03-03T07:57:04;100156.94;;;3.15;82.41
41515;BME280;27247;48.020;16.720;2023-03-03T08:01:37;100149.47;;;3.43;80.89
41515;BME280;27247;48.020;16.720;2023-03-03T08:05:51;100147.13;;;3.72;80.11
41515;BME280;27247;48.020;16.720;2023-03-03T08:10:27;100158.47;;;3.95;79.01
41515;BME280;27247;48.020;16.720;2023-03-03T08:14:38;100156.34;;;4.21;78.08
41515;BME280;27247;48.020;16.720;2023-03-03T08:18:51;100153.59;;;4.43;77.39
41515;BME280;27247;48.020;16.720;2023-03-03T08:23:02;100156.97;;;4.66;76.50
41515;BME280;27247;48.020;16.720;2023-03-03T08:27:12;100151.91;;;4.84;76.35
41515;BME280;27247;48.020;16.720;2023-03-03T08:31:23;100147.44;;;5.14;75.25
41515;BME280;27247;48.020;16.720;2023-03-03T08:35:33;100145.84;;;5.23;74.82
41515;BME280;27247;48.020;16.720;2023-03-03T08:39:44;100143.56;;;5.49;72.28
41515;BME280;27247;48.020;16.720;2023-03-03T08:43:55;100145.41;;;5.77;73.05
41515;BME280;27247;48.020;16.720;2023-03-03T08:48:07;100141.00;;;5.97;71.89
41515;BME280;27247;48.020;16.720;2023-03-03T08:52:17;100145.47;;;6.16;71.66
41515;BME280;27247;48.020;16.720;2023-03-03T08:56:27;100150.09;;;6.43;69.44
41515;BME280;27247;48.020;16.720;2023-03-03T09:00:38;100149.53;;;6.59;68.59
41515;BME280;27247;48.020;16.720;2023-03-03T09:04:48;100147.53;;;6.80;67.79
41515;BME280;27247;48.020;16.720;2023-03-03T09:08:59;100150.53;;;7.04;67.81
41515;BME280;27247;48.020;16.720;2023-03-03T09:13:14;100138.13;;;7.23;66.57
41515;BME280;27247;48.020;16.720;2023-03-03T09:17:30;100154.97;;;7.51;66.08
41515;BME280;27247;48.020;16.720;2023-03-03T09:21:42;100150.19;;;7.54;63.82
41515;BME280;27247;48.020;16.720;2023-03-03T09:25:52;100161.44;;;7.66;63.39
41515;BME280;27247;48.020;16.720;2023-03-03T09:34:40;100169.28;;;7.40;63.32
41515;BME280;27247;48.020;16.720;2023-03-03T09:38:51;100173.47;;;7.43;63.91
41515;BME280;27247;48.020;16.720;2023-03-03T09:43:08;100181.06;;;7.38;63.95
41515;BME280;27247;48.020;16.720;2023-03-03T09:47:43;100179.00;;;7.59;63.45
41515;BME280;27247;48.020;16.720;2023-03-03T09:56:38;100162.94;;;7.96;63.51
41515;BME280;27247;48.020;16.720;2023-03-03T10:05:33;100148.44;;;8.61;61.15
41515;BME280;27247;48.020;16.720;2023-03-03T10:10:22;100156.31;;;8.45;62.09
41515;BME280;27247;48.020;16.720;2023-03-03T10:19:03;100149.69;;;8.75;60.84
41515;BME280;27247;48.020;16.720;2023-03-03T10:23:51;100144.56;;;9.08;60.17
41515;BME280;27247;48.020;16.720;2023-03-03T10:28:25;100148.09;;;9.16;60.14
41515;BME280;27247;48.020;16.720;2023-03-03T10:46:14;100124.16;;;8.90;60.68
41515;BME280;27247;48.020;16.720;2023-03-03T10:51:10;100116.06;;;9.08;60.56
41515;BME280;27247;48.020;16.720;2023-03-03T10:55:44;100117.78;;;9.51;59.78
41515;BME280;27247;48.020;16.720;2023-03-03T11:18:16;100097.44;;;10.49;57.21
41515;BME280;27247;48.020;16.720;2023-03-03T11:23:17;100092.56;;;10.37;55.51
41515;BME280;27247;48.020;16.720;2023-03-03T11:27:52;100095.38;;;10.76;54.88
41515;BME280;27247;48.020;16.720;2023-03-03T11:32:18;100106.78;;;11.17;54.41
41515;BME280;27247;48.020;16.720;2023-03-03T11:36:36;100101.97;;;11.51;53.31
41515;BME280;27247;48.020;16.720;2023-03-03T11:40:52;100088.69;;;11.27;53.12
41515;BME280;27247;48.020;16.720;2023-03-03T11:45:45;100093.44;;;11.09;53.07
41515;BME280;27247;48.020;16.720;2023-03-03T11:54:23;100084.59;;;11.47;52.96
41515;BME280;27247;48.020;16.720;2023-03-03T11:58:44;100067.19;;;11.51;51.69
41515;BME280;27247;48.020;16.720;2023-03-03T12:07:51;100045.16;;;11.72;51.76
41515;BME280;27247;48.020;16.720;2023-03-03T12:12:13;100047.16;;;11.78;50.53
41515;BME280;27247;48.020;16.720;2023-03-03T12:17:02;100041.34;;;11.67;50.22
41515;BME280;27247;48.020;16.720;2023-03-03T12:30:47;100040.06;;;11.55;51.67
41515;BME280;27247;48.020;16.720;2023-03-03T12:35:18;100028.91;;;11.74;51.08
41515;BME280;27247;48.020;16.720;2023-03-03T12:39:59;100027.81;;;11.29;51.16
41515;BME280;27247;48.020;16.720;2023-03-03T12:44:23;100023.91;;;11.48;51.92
41515;BME280;27247;48.020;16.720;2023-03-03T12:48:42;100020.75;;;11.44;51.51
41515;BME280;27247;48.020;16.720;2023-03-03T13:06:58;99995.72;;;12.58;48.53
41515;BME280;27247;48.020;16.720;2023-03-03T13:11:23;99993.34;;;12.26;50.35
41515;BME280;27247;48.020;16.720;2023-03-03T13:15:47;99992.38;;;12.71;50.01
41515;BME280;27247;48.020;16.720;2023-03-03T13:20:04;99988.00;;;12.40;49.01
41515;BME280;27247;48.020;16.720;2023-03-03T13:24:32;99984.53;;;12.02;50.52
41515;BME280;27247;48.020;16.720;2023-03-03T13:33:34;99974.97;;;11.85;49.91
41515;BME280;27247;48.020;16.720;2023-03-03T13:37:47;99981.44;;;11.91;50.08
41515;BME280;27247;48.020;16.720;2023-03-03T13:51:08;99962.66;;;12.13;49.03
41515;BME280;27247;48.020;16.720;2023-03-03T13:55:26;99975.66;;;12.02;48.41
41515;BME280;27247;48.020;16.720;2023-03-03T14:04:12;99970.03;;;12.11;48.89
41515;BME280;27247;48.020;16.720;2023-03-03T14:08:46;99959.41;;;12.03;49.29
41515;BME280;27247;48.020;16.720;2023-03-03T14:13:12;99967.47;;;12.33;49.13
41515;BME280;27247;48.020;16.720;2023-03-03T14:17:30;99956.97;;;12.75;47.41
41515;BME280;27247;48.020;16.720;2023-03-03T14:26:47;99957.28;;;12.13;48.98
41515;BME280;27247;48.020;16.720;2023-03-03T14:31:13;99948.16;;;12.23;49.72
41515;BME280;27247;48.020;16.720;2023-03-03T14:35:29;99956.09;;;12.31;50.00
41515;BME280;27247;48.020;16.720;2023-03-03T14:39:44;99948.44;;;12.42;49.49
41515;BME280;27247;48.020;16.720;2023-03-03T14:44:00;99949.50;;;11.89;49.38
41515;BME280;27247;48.020;16.720;2023-03-03T14:48:16;99955.72;;;12.04;49.97
41515;BME280;27247;48.020;16.720;2023-03-03T14:52:30;99952.16;;;11.89;50.07
41515;BME280;27247;48.020;16.720;2023-03-03T15:05:53;99951.41;;;12.47;48.96
41515;BME280;27247;48.020;16.720;2023-03-03T15:10:05;99951.41;;;12.47;49.52
41515;BME280;27247;48.020;16.720;2023-03-03T15:14:20;99949.28;;;12.43;49.35
41515;BME280;27247;48.020;16.720;2023-03-03T15:18:32;99953.41;;;12.16;49.47
41515;BME280;27247;48.020;16.720;2023-03-03T15:22:46;99939.38;;;11.76;50.73
41515;BME280;27247;48.020;16.720;2023-03-03T15:27:01;99943.72;;;11.55;50.83
41515;BME280;27247;48.020;16.720;2023-03-03T15:36:00;99947.94;;;10.95;49.29
41515;BME280;27247;48.020;16.720;2023-03-03T15:54:27;99951.34;;;10.42;49.66
41515;BME280;27247;48.020;16.720;2023-03-03T16:03:17;99949.34;;;10.19;50.16
41515;BME280;27247;48.020;16.720;2023-03-03T16:07:51;99958.69;;;10.15;50.34
41515;BME280;27247;48.020;16.720;2023-03-03T16:30:56;99965.19;;;9.32;51.97
41515;BME280;27247;48.020;16.720;2023-03-03T16:35:24;99975.66;;;9.17;52.52
41515;BME280;27247;48.020;16.720;2023-03-03T16:44:20;99983.94;;;8.98;53.18
41515;BME280;27247;48.020;16.720;2023-03-03T16:48:47;99987.91;;;8.93;53.19
41515;BME280;27247;48.020;16.720;2023-03-03T17:06:34;99997.47;;;8.36;54.67
41515;BME280;27247;48.020;16.720;2023-03-03T17:10:54;99993.84;;;8.27;55.51
41515;BME280;27247;48.020;16.720;2023-03-03T17:19:48;100018.19;;;7.89;53.54
41515;BME280;27247;48.020;16.720;2023-03-03T17:24:43;100022.25;;;7.12;53.98
41515;BME280;27247;48.020;16.720;2023-03-03T17:29:16;100029.38;;;6.84;55.23
41515;BME280;27247;48.020;16.720;2023-03-03T17:33:39;100029.47;;;6.65;55.91
41515;BME280;27247;48.020;16.720;2023-03-03T17:38:05;100033.47;;;6.22;56.45
41515;BME280;27247;48.020;16.720;2023-03-03T17:46:47;100036.00;;;5.85;57.75
41515;BME280;27247;48.020;16.720;2023-03-03T17:51:35;100039.34;;;5.77;57.75
41515;BME280;27247;48.020;16.720;2023-03-03T17:56:04;100045.91;;;5.83;58.66
41515;BME280;27247;48.020;16.720;2023-03-03T18:05:11;100045.63;;;5.48;58.65
41515;BME280;27247;48.020;16.720;2023-03-03T18:22:55;100057.91;;;4.38;60.53
41515;BME280;27247;48.020;16.720;2023-03-03T18:27:33;100061.50;;;4.58;61.80
41515;BME280;27247;48.020;16.720;2023-03-03T18:40:48;100073.19;;;4.13;63.87
41515;BME280;27247;48.020;16.720;2023-03-03T18:49:55;100083.25;;;4.40;66.04
41515;BME280;27247;48.020;16.720;2023-03-03T18:58:40;100088.44;;;4.42;65.42
41515;BME280;27247;48.020;16.720;2023-03-03T19:02:54;100086.34;;;4.04;65.11
41515;BME280;27247;48.020;16.720;2023-03-03T19:07:28;100090.28;;;3.77;65.01
41515;BME280;27247;48.020;16.720;2023-03-03T19:16:04;100099.81;;;4.01;65.92
41515;BME280;27247;48.020;16.720;2023-03-03T19:20:15;100096.78;;;4.05;65.79
41515;BME280;27247;48.020;16.720;2023-03-03T19:24:31;100090.97;;;3.91;65.89
41515;BME280;27247;48.020;16.720;2023-03-03T19:28:55;100098.09;;;3.79;65.76
41515;BME280;27247;48.020;16.720;2023-03-03T19:46:53;100121.75;;;2.81;69.59
41515;BME280;27247;48.020;16.720;2023-03-03T19:55:33;100134.00;;;3.05;69.92
41515;BME280;27247;48.020;16.720;2023-03-03T19:59:58;100129.91;;;3.12;69.97
41515;BME280;27247;48.020;16.720;2023-03-03T20:23:22;100162.91;;;2.84;69.88
41515;BME280;27247;48.020;16.720;2023-03-03T20:50:01;100187.16;;;1.95;72.01
41515;BME280;27247;48.020;16.720;2023-03-03T20:54:50;100185.34;;;2.08;72.29
41515;BME280;27247;48.020;16.720;2023-03-03T21:03:30;100177.78;;;2.39;72.51
41515;BME280;27247;48.020;16.720;2023-03-03T21:08:04;100172.53;;;2.39;71.84
41515;BME280;27247;48.020;16.720;2023-03-03T21:12:29;100177.34;;;2.45;72.36
41515;BME280;27247;48.020;16.720;2023-03-03T21:16:39;100185.31;;;2.32;71.95
41515;BME280;27247;48.020;16.720;2023-03-03T21:20:50;100190.41;;;2.11;72.54
41515;BME280;27247;48.020;16.720;2023-03-03T21:25:01;100192.28;;;1.85;73.71
41515;BME280;27247;48.020;16.720;2023-03-03T21:29:29;100204.56;;;1.98;75.01
41515;BME280;27247;48.020;16.720;2023-03-03T21:33:52;100196.56;;;2.23;75.41
41515;BME280;27247;48.020;16.720;2023-03-03T21:38:03;100193.19;;;2.21;74.50
41515;BME280;27247;48.020;16.720;2023-03-03T21:42:15;100195.03;;;2.32;73.38
41515;BME280;27247;48.020;16.720;2023-03-03T21:46:28;100192.00;;;2.25;74.62
41515;BME280;27247;48.020;16.720;2023-03-03T21:50:38;100192.91;;;2.13;75.63
41515;BME280;27247;48.020;16.720;2023-03-03T21:54:51;100212.25;;;2.01;76.02
41515;BME280;27247;48.020;16.720;2023-03-03T21:59:02;100206.44;;;2.08;76.35
41515;BME280;27247;48.020;16.720;2023-03-03T22:03:13;100210.00;;;2.07;75.78
41515;BME280;27247;48.020;16.720;2023-03-03T22:07:24;100214.03;;;2.00;76.35
41515;BME280;27247;48.020;16.720;2023-03-03T22:11:35;100209.25;;;1.81;75.51
41515;BME280;27247;48.020;16.720;2023-03-03T22:15:46;100213.91;;;1.28;73.27
41515;BME280;27247;48.020;16.720;2023-03-03T22:19:56;100219.38;;;0.75;73.19
41515;BME280;27247;48.020;16.720;2023-03-03T22:24:07;100215.16;;;0.72;74.36
41515;BME280;27247;48.020;16.720;2023-03-03T22:28:18;100209.69;;;0.62;74.22
41515;BME280;27247;48.020;16.720;2023-03-03T22:32:28;100207.28;;;0.85;77.02
41515;BME280;27247;48.020;16.720;2023-03-03T22:36:38;100206.03;;;1.16;79.74
41515;BME280;27247;48.020;16.720;2023-03-03T22:40:50;100214.03;;;1.27;80.34
41515;BME280;27247;48.020;16.720;2023-03-03T22:45:00;100219.63;;;1.10;77.87
41515;BME280;27247;48.020;16.720;2023-03-03T22:49:11;100221.69;;;0.67;76.36
41515;BME280;27247;48.020;16.720;2023-03-03T22:53:22;100217.34;;;0.66;76.83
41515;BME280;27247;48.020;16.720;2023-03-03T22:57:33;100208.19;;;0.58;78.60
41515;BME280;27247;48.020;16.720;2023-03-03T23:01:43;100211.91;;;0.69;79.33
41515;BME280;27247;48.020;16.720;2023-03-03T23:05:53;100201.38;;;0.81;80.95
41515;BME280;27247;48.020;16.720;2023-03-03T23:10:05;100209.38;;;0.92;81.98
41515;BME280;27247;48.020;16.720;2023-03-03T23:14:16;100199.50;;;1.09;82.38
41515;BME280;27247;48.020;16.720;2023-03-03T23:18:26;100205.94;;;1.17;81.62
41515;BME280;27247;48.020;16.720;2023-03-03T23:22:37;100208.84;;;1.00;80.43
41515;BME280;27247;48.020;16.720;2023-03-03T23:26:48;100204.84;;;0.56;79.74
41515;BME280;27247;48.020;16.720;2023-03-03T23:31:05;100209.75;;;0.36;80.14
41515;BME280;27247;48.020;16.720;2023-03-03T23:35:17;100207.41;;;0.31;80.49
41515;BME280;27247;48.020;16.720;2023-03-03T23:39:27;100203.25;;;0.54;81.01
41515;BME280;27247;48.020;16.720;2023-03-03T23:43:38;100221.03;;;-0.04;79.46
41515;BME280;27247;48.020;16.720;2023-03-03T23:47:48;100217.50;;;-0.17;78.42
41515;BME280;27247;48.020;16.720;2023-03-03T23:51:59;100214.75;;;-0.42;78.95
41515;BME280;27247;48.020;16.720;2023-03-03T23:56:09;100214.66;;;-0.41;80.59
